Terminal Aerodrome Forecast
Issued by NWS

Home | Current Version | Previous Version | Text Only | Print | Product List | Glossary On
Versions: 1 2 3 4 5 6 7 8 9 10 11 12 13 14 15 16 17 18 19 20 21 22 23 24
000
FTUS44 KMAF 040000 RRA
TAFHOB
TAF
KHOB 040005Z 0400/0424 19006KT P6SM BKN120 OVC250
     FM041400 04015G25KT P6SM OVC015
     FM041800 34015G25KT 4SM -RADZ BR OVC010
      TEMPO 0420/0424 2SM -FZRA BR OVC008=

USA.gov is the U.S. government's official web portal to all federal, state and local government web resources and services.